Time;durP1;ratioP1;P1;durP2;ratioP2;P2;SDS_P1;SDS_P2;PMS_P1;PMS_P2;Temp;Humidity;BMP_temperature;BMP_pressure;BME280_temperature;BME280_humidity;BME280_pressure;Samples;Min_cycle;Max_cycle;Signal;HPM_P1;HPM_P2
2021/08/01 00:00:09;;;;;;;4.62;2.12;;;;;;;25.34;44.03;100071.88;4418488;32;20429;-68
2021/08/01 00:02:34;;;;;;;3.40;1.70;;;;;;;25.45;43.79;100061.44;4419227;32;20077;-68
2021/08/01 00:05:00;;;;;;;2.12;1.80;;;;;;;25.15;44.15;100068.34;4419022;32;20072;-68
2021/08/01 00:07:26;;;;;;;2.10;1.70;;;;;;;25.28;43.88;100064.69;4417970;32;20121;-68
2021/08/01 00:09:58;;;;;;;5.05;1.95;;;;;;;25.26;43.97;100067.34;4420098;32;20074;-68
2021/08/01 00:12:25;;;;;;;3.85;2.35;;;;;;;25.50;43.98;100074.94;4416626;32;20069;-68
2021/08/01 00:14:51;;;;;;;2.28;1.85;;;;;;;25.32;45.14;100077.41;4418346;32;20053;-68
2021/08/01 00:17:16;;;;;;;2.25;1.50;;;;;;;25.25;46.42;100072.31;4402996;32;20076;-68
2021/08/01 00:19:42;;;;;;;4.03;2.10;;;;;;;24.90;46.34;100063.38;4417169;32;20121;-68
2021/08/01 00:22:10;;;;;;;4.57;2.00;;;;;;;24.99;46.26;100069.47;4416773;32;20112;-68
2021/08/01 00:24:36;;;;;;;2.60;2.10;;;;;;;24.98;46.40;100067.16;4420111;32;20041;-68
2021/08/01 00:27:03;;;;;;;2.92;2.03;;;;;;;24.84;46.68;100060.63;4415647;32;20037;-68
2021/08/01 00:29:28;;;;;;;2.58;2.10;;;;;;;24.82;47.20;100062.50;4419887;32;20106;-68
2021/08/01 00:31:58;;;;;;;2.83;1.80;;;;;;;24.69;47.63;100066.16;4417733;32;20061;-68
2021/08/01 00:34:24;;;;;;;3.03;2.10;;;;;;;24.86;46.90;100057.97;4419584;32;20097;-68
2021/08/01 00:36:49;;;;;;;4.10;1.95;;;;;;;24.66;47.57;100060.72;4419695;32;20135;-68
2021/08/01 00:39:15;;;;;;;2.45;1.50;;;;;;;24.70;47.94;100061.94;4418396;32;20046;-68
2021/08/01 00:41:41;;;;;;;5.50;2.25;;;;;;;24.62;47.47;100055.28;4418779;32;20189;-68
2021/08/01 00:44:06;;;;;;;4.70;1.90;;;;;;;24.67;48.56;100050.78;4417706;32;20067;-68
2021/08/01 00:46:32;;;;;;;6.25;1.67;;;;;;;24.53;48.71;100054.94;4418256;32;20114;-68
2021/08/01 00:49:00;;;;;;;2.65;1.80;;;;;;;24.55;48.70;100055.16;4418696;32;20030;-68
2021/08/01 00:51:28;;;;;;;2.35;1.55;;;;;;;24.64;48.63;100055.50;4421709;32;20582;-68
2021/08/01 00:53:57;;;;;;;2.65;1.77;;;;;;;24.69;48.75;100057.53;4420399;32;20090;-68
2021/08/01 00:56:24;;;;;;;3.87;1.52;;;;;;;24.71;48.51;100054.88;4419413;32;20363;-68
2021/08/01 00:58:49;;;;;;;4.18;1.70;;;;;;;24.57;49.08;100061.91;4417419;32;20095;-68
2021/08/01 01:01:18;;;;;;;2.58;1.60;;;;;;;24.55;49.14;100058.81;4418738;32;20398;-68
2021/08/01 01:09:04;;;;;;;2.85;1.85;;;;;;;25.06;47.86;100054.03;3983322;32;15024497;-69
2021/08/01 01:11:35;;;;;;;3.45;2.15;;;;;;;25.08;47.88;100062.47;4432534;32;20068;-69
2021/08/01 01:14:02;;;;;;;3.03;1.77;;;;;;;24.64;48.33;100052.62;4435099;32;20538;-69
2021/08/01 01:16:36;;;;;;;3.95;1.90;;;;;;;24.51;48.53;100043.97;4435545;32;20072;-69
2021/08/01 01:19:03;;;;;;;3.25;2.20;;;;;;;24.61;48.37;100050.06;4433050;32;20100;-69
2021/08/01 01:21:54;;;;;;;3.20;2.22;;;;;;;24.61;48.16;100044.31;4432601;32;20025;-69
2021/08/01 01:24:31;;;;;;;3.65;2.35;;;;;;;24.72;47.56;100042.03;4431569;32;20053;-69
2021/08/01 01:30:03;;;;;;;3.20;2.20;;;;;;;25.24;46.89;100044.06;3983865;32;15028280;-69
2021/08/01 01:37:46;;;;;;;5.45;3.42;;;;;;;24.90;44.97;100043.22;3982319;32;15027573;-69
2021/08/01 01:40:14;;;;;;;5.45;3.40;;;;;;;24.90;44.97;100043.22;4437351;32;20352;-67
2021/08/01 01:42:41;;;;;;;6.00;3.17;;;;;;;24.29;46.17;100041.50;4431489;32;20138;-68
2021/08/01 01:45:07;;;;;;;6.22;3.80;;;;;;;24.33;46.26;100047.72;4439134;32;20073;-69
2021/08/01 01:47:34;;;;;;;8.23;3.45;;;;;;;24.27;46.43;100035.53;4433229;32;20498;-68
2021/08/01 01:50:01;;;;;;;9.02;4.03;;;;;;;24.43;45.60;100037.34;4436119;32;20163;-67
2021/08/01 01:52:29;;;;;;;6.93;3.83;;;;;;;24.56;45.60;100040.22;4434139;32;20163;-68
2021/08/01 01:54:56;;;;;;;6.35;3.75;;;;;;;24.43;45.61;100040.22;4433919;32;20071;-70
2021/08/01 01:57:22;;;;;;;8.82;4.07;;;;;;;24.17;44.91;100045.16;4432368;32;20097;-68
2021/08/01 01:59:48;;;;;;;8.30;4.62;;;;;;;23.97;45.10;100051.50;4434644;32;20397;-68
2021/08/01 02:02:14;;;;;;;10.63;4.20;;;;;;;24.02;44.70;100057.16;4435624;32;20140;-69
2021/08/01 02:04:40;;;;;;;8.32;4.35;;;;;;;23.87;45.27;100044.59;4434516;32;20103;-68
2021/08/01 02:07:07;;;;;;;9.35;4.22;;;;;;;24.07;45.10;100053.41;4438601;32;20137;-68
2021/08/01 02:09:57;;;;;;;10.00;4.40;;;;;;;23.75;44.68;100043.22;4435457;32;20495;-68
2021/08/01 02:15:04;;;;;;;9.30;4.30;;;;;;;24.90;42.86;100040.34;3980918;32;15028302;-69
2021/08/01 02:17:54;;;;;;;11.25;4.20;;;;;;;24.90;42.86;100040.34;4435770;32;20090;-69
2021/08/01 02:20:27;;;;;;;7.93;3.97;;;;;;;24.49;42.93;100038.00;4436104;32;20041;-69
2021/08/01 02:22:54;;;;;;;9.38;3.83;;;;;;;24.60;43.10;100046.41;4436683;32;20156;-69
2021/08/01 02:25:21;;;;;;;6.90;3.95;;;;;;;24.43;42.98;100048.06;4435238;32;20059;-68
2021/08/01 02:27:48;;;;;;;6.97;3.53;;;;;;;24.46;42.86;100047.75;4436329;32;20086;-69
2021/08/01 02:30:16;;;;;;;11.30;3.90;;;;;;;24.12;42.69;100046.81;4420635;32;20414;-69
2021/08/01 02:32:45;;;;;;;6.40;3.67;;;;;;;24.34;42.64;100042.75;4436403;32;20743;-69
2021/08/01 02:35:11;;;;;;;5.80;3.67;;;;;;;24.28;42.84;100051.47;4436686;32;20408;-69
2021/08/01 02:37:38;;;;;;;7.12;3.20;;;;;;;24.11;42.88;100047.34;4436061;32;20037;-69
2021/08/01 02:40:05;;;;;;;7.62;3.55;;;;;;;24.09;42.95;100047.13;4436190;32;21377;-69
2021/08/01 02:42:32;;;;;;;5.87;3.58;;;;;;;24.20;42.49;100044.06;4439275;32;20060;-68
2021/08/01 02:45:01;;;;;;;6.05;4.07;;;;;;;24.10;42.85;100055.19;4437000;32;20445;-68
2021/08/01 02:47:30;;;;;;;8.75;4.00;;;;;;;24.30;42.60;100057.44;4438089;32;20037;-68
2021/08/01 02:49:58;;;;;;;10.60;3.87;;;;;;;24.44;42.28;100050.37;4435257;32;20034;-68
2021/08/01 02:52:32;;;;;;;12.93;4.40;;;;;;;24.37;42.25;100048.16;4435445;32;20072;-68
2021/08/01 02:55:01;;;;;;;7.28;3.53;;;;;;;24.32;42.32;100054.78;4436833;32;20064;-68
2021/08/01 02:57:30;;;;;;;7.00;3.83;;;;;;;24.11;42.71;100053.84;4434129;32;20076;-68
2021/08/01 03:00:00;;;;;;;9.48;4.15;;;;;;;24.18;42.32;100050.34;4435728;32;20160;-68
2021/08/01 03:02:26;;;;;;;9.02;3.85;;;;;;;24.12;42.66;100054.63;4437139;32;20084;-68
2021/08/01 03:04:52;;;;;;;10.00;4.22;;;;;;;24.14;42.50;100058.50;4436938;32;20447;-68
2021/08/01 03:07:18;;;;;;;9.27;3.72;;;;;;;24.21;42.36;100065.72;4437511;32;20041;-68
2021/08/01 03:09:44;;;;;;;11.93;4.15;;;;;;;23.98;42.40;100059.56;4437872;32;20037;-68
2021/08/01 03:12:13;;;;;;;7.72;3.30;;;;;;;24.06;42.35;100062.59;4437845;32;20986;-68
2021/08/01 03:14:40;;;;;;;7.18;3.65;;;;;;;23.62;43.94;100060.41;4436874;32;20362;-68
2021/08/01 03:17:07;;;;;;;8.00;3.95;;;;;;;23.32;45.31;100072.81;4436463;32;20100;-68
2021/08/01 03:19:35;;;;;;;11.02;4.28;;;;;;;23.06;45.98;100071.84;4436966;32;20034;-68
2021/08/01 03:22:01;;;;;;;13.00;4.78;;;;;;;23.25;46.22;100066.91;4432310;32;20400;-69
2021/08/01 03:24:27;;;;;;;9.43;4.20;;;;;;;22.89;47.87;100074.91;4431605;32;20065;-69
2021/08/01 03:26:53;;;;;;;8.80;4.05;;;;;;;23.11;47.54;100068.13;4426152;32;20565;-69
2021/08/01 03:29:19;;;;;;;6.35;4.15;;;;;;;23.11;47.42;100071.00;4427253;32;20071;-69
2021/08/01 03:31:45;;;;;;;9.05;4.72;;;;;;;23.04;47.25;100075.25;4426456;32;20491;-69
2021/08/01 03:34:10;;;;;;;7.78;4.25;;;;;;;22.98;47.89;100073.78;4427716;32;20060;-69
2021/08/01 03:36:36;;;;;;;8.55;4.32;;;;;;;23.03;47.58;100075.78;4425558;32;20367;-68
2021/08/01 03:39:03;;;;;;;10.40;4.55;;;;;;;23.10;47.42;100072.31;4426794;32;20088;-68
2021/08/01 03:41:29;;;;;;;12.70;4.78;;;;;;;23.19;47.27;100063.31;4424051;32;20058;-68
2021/08/01 03:43:55;;;;;;;14.60;5.00;;;;;;;23.06;47.41;100066.88;4426769;32;20077;-68
2021/08/01 03:46:21;;;;;;;12.57;4.37;;;;;;;23.16;47.45;100068.03;4425335;32;20104;-68
2021/08/01 03:48:46;;;;;;;8.93;4.60;;;;;;;23.21;47.00;100078.69;4426509;32;20565;-68
2021/08/01 03:51:12;;;;;;;6.97;4.32;;;;;;;23.21;45.94;100067.22;4423144;32;20064;-68
2021/08/01 03:53:37;;;;;;;9.52;4.37;;;;;;;23.21;45.58;100069.28;4426464;32;20030;-68
2021/08/01 03:56:03;;;;;;;10.10;4.18;;;;;;;22.95;46.00;100071.97;4424967;32;20038;-68
2021/08/01 03:58:30;;;;;;;12.52;4.32;;;;;;;23.31;45.38;100077.00;4425601;32;20081;-68
2021/08/01 04:00:56;;;;;;;9.07;4.80;;;;;;;23.40;44.98;100073.75;4426705;32;20061;-68
2021/08/01 04:03:22;;;;;;;10.00;3.92;;;;;;;23.39;44.80;100088.66;4424454;32;20454;-68
2021/08/01 04:05:47;;;;;;;12.18;4.32;;;;;;;23.66;44.54;100075.22;4424753;32;20415;-68
2021/08/01 04:08:13;;;;;;;7.00;3.87;;;;;;;23.63;44.28;100074.22;4425668;32;20825;-68
2021/08/01 04:10:39;;;;;;;8.75;4.37;;;;;;;23.58;44.12;100075.06;4425110;32;20416;-68
2021/08/01 04:13:05;;;;;;;10.50;4.18;;;;;;;23.54;43.92;100083.97;4425763;32;20054;-68
2021/08/01 04:15:31;;;;;;;13.23;4.65;;;;;;;23.49;43.91;100087.72;4424305;32;20148;-68
2021/08/01 04:17:57;;;;;;;12.63;4.37;;;;;;;23.74;44.19;100070.41;4426643;32;20179;-69
2021/08/01 04:20:23;;;;;;;13.15;4.30;;;;;;;23.76;44.19;100067.75;4425012;32;20115;-68
2021/08/01 04:22:53;;;;;;;8.40;4.40;;;;;;;23.73;44.16;100069.62;4422623;32;20033;-68
2021/08/01 04:25:19;;;;;;;12.02;4.78;;;;;;;24.00;44.05;100070.53;4427061;32;20131;-68
2021/08/01 04:27:45;;;;;;;11.05;4.65;;;;;;;23.80;44.21;100065.34;4425487;32;20029;-68
2021/08/01 04:30:11;;;;;;;11.77;4.80;;;;;;;23.59;44.41;100075.84;4426456;32;20060;-68
2021/08/01 04:32:37;;;;;;;17.62;4.57;;;;;;;23.63;44.18;100076.31;4424364;32;20488;-68
2021/08/01 04:35:04;;;;;;;11.12;4.50;;;;;;;23.37;44.35;100076.94;4427444;32;20065;-68
2021/08/01 04:37:29;;;;;;;12.27;4.37;;;;;;;23.66;44.01;100072.34;4422098;32;20410;-68
2021/08/01 04:39:55;;;;;;;15.95;4.40;;;;;;;23.54;43.99;100091.84;4425908;32;20038;-68
2021/08/01 04:42:21;;;;;;;11.57;4.62;;;;;;;23.24;44.57;100089.13;4423659;32;20068;-68
2021/08/01 04:44:47;;;;;;;13.20;4.12;;;;;;;23.58;44.11;100091.50;4427359;32;20061;-68
2021/08/01 04:47:14;;;;;;;8.15;4.05;;;;;;;23.73;43.98;100089.72;4421884;32;20116;-68
2021/08/01 04:49:41;;;;;;;11.65;4.75;;;;;;;23.69;43.97;100080.66;4426355;32;20092;-68
2021/08/01 04:52:07;;;;;;;11.57;4.15;;;;;;;23.58;43.93;100095.16;4421502;32;20065;-68
2021/08/01 04:54:36;;;;;;;9.02;3.80;;;;;;;23.75;43.67;100092.84;4424301;32;20100;-68
2021/08/01 04:57:03;;;;;;;8.55;4.72;;;;;;;23.96;43.16;100090.94;4424061;32;20197;-68
2021/08/01 04:59:29;;;;;;;7.70;3.75;;;;;;;23.78;43.04;100094.63;4426894;32;20122;-68
2021/08/01 05:01:55;;;;;;;8.70;4.37;;;;;;;23.50;43.91;100097.09;4424605;32;20089;-68
2021/08/01 05:04:21;;;;;;;9.23;4.10;;;;;;;23.36;44.23;100089.75;4424886;32;20060;-68
2021/08/01 05:06:47;;;;;;;12.52;4.18;;;;;;;23.31;44.46;100091.37;4424891;32;20030;-68
2021/08/01 05:09:12;;;;;;;7.30;4.15;;;;;;;23.57;44.13;100104.31;4424745;32;20038;-68
2021/08/01 05:11:38;;;;;;;7.15;3.55;;;;;;;23.59;43.94;100093.84;4422395;32;20065;-68
2021/08/01 05:14:04;;;;;;;7.93;3.62;;;;;;;23.67;43.76;100097.66;4425653;32;20132;-68
2021/08/01 05:16:30;;;;;;;6.07;3.20;;;;;;;23.78;44.06;100094.63;4423777;32;20084;-68
2021/08/01 05:18:55;;;;;;;6.90;3.62;;;;;;;23.70;43.32;100102.31;4424264;32;20084;-68
2021/08/01 05:21:22;;;;;;;5.28;3.35;;;;;;;23.69;42.91;100094.22;4422005;32;20444;-68
2021/08/01 05:23:49;;;;;;;9.18;3.58;;;;;;;23.90;42.75;100093.09;4424310;32;20038;-68
2021/08/01 05:26:15;;;;;;;6.97;3.15;;;;;;;23.81;42.57;100099.28;4421007;32;20486;-68
2021/08/01 05:28:41;;;;;;;7.57;2.60;;;;;;;23.99;42.44;100101.34;4426117;32;20089;-68
2021/08/01 05:31:07;;;;;;;6.00;3.15;;;;;;;23.93;42.45;100103.50;4423201;32;20458;-68
2021/08/01 05:33:32;;;;;;;4.65;2.90;;;;;;;24.12;41.84;100115.00;4426831;32;20045;-68
2021/08/01 05:36:04;;;;;;;5.47;2.90;;;;;;;24.26;41.49;100117.38;4424631;32;20301;-68
2021/08/01 05:38:30;;;;;;;5.87;2.85;;;;;;;24.54;40.77;100117.66;4424445;32;20094;-68
2021/08/01 05:40:56;;;;;;;7.30;2.70;;;;;;;24.36;40.54;100112.00;4423006;32;20148;-68
2021/08/01 05:43:21;;;;;;;6.05;3.08;;;;;;;24.38;40.53;100112.19;4425551;32;20076;-68
2021/08/01 05:45:47;;;;;;;7.43;2.97;;;;;;;24.33;40.63;100113.84;4422912;32;20098;-68
2021/08/01 05:48:13;;;;;;;6.35;2.90;;;;;;;24.58;40.14;100120.22;4424472;32;20053;-68
2021/08/01 05:50:39;;;;;;;4.72;2.87;;;;;;;24.60;39.92;100114.69;4423896;32;20073;-68
2021/08/01 05:53:04;;;;;;;5.25;2.55;;;;;;;24.52;39.69;100108.84;4424054;32;20063;-68
2021/08/01 05:55:30;;;;;;;8.52;2.90;;;;;;;24.59;39.57;100113.91;4424779;32;20114;-68
2021/08/01 05:57:56;;;;;;;5.60;2.47;;;;;;;24.55;39.67;100122.13;4423239;32;20117;-68
2021/08/01 06:00:21;;;;;;;8.73;2.90;;;;;;;24.42;39.79;100110.56;4424298;32;20070;-68
2021/08/01 06:02:47;;;;;;;4.93;2.90;;;;;;;24.21;40.00;100123.22;4425704;32;20485;-69
2021/08/01 06:05:13;;;;;;;5.25;2.47;;;;;;;24.21;40.24;100123.97;4423736;32;20399;-68
2021/08/01 06:07:38;;;;;;;5.95;2.72;;;;;;;24.08;40.61;100123.94;4425637;32;20030;-68
2021/08/01 06:10:04;;;;;;;6.37;3.30;;;;;;;24.05;41.02;100121.41;4423025;32;20140;-68
2021/08/01 06:12:30;;;;;;;5.25;2.75;;;;;;;23.91;41.31;100122.63;4425588;32;20519;-68
2021/08/01 06:14:56;;;;;;;6.28;3.15;;;;;;;23.59;41.59;100127.56;4424364;32;20160;-68
2021/08/01 06:17:22;;;;;;;4.47;2.90;;;;;;;23.66;41.52;100126.91;4423761;32;20206;-68
2021/08/01 06:19:47;;;;;;;8.82;3.25;;;;;;;23.60;41.73;100134.84;4422494;32;20025;-68
2021/08/01 06:22:15;;;;;;;4.25;2.75;;;;;;;23.60;41.63;100135.63;4423325;32;20408;-68
2021/08/01 06:24:41;;;;;;;8.70;2.90;;;;;;;23.79;41.62;100130.66;4422860;32;20090;-68
2021/08/01 06:27:06;;;;;;;5.07;2.70;;;;;;;23.70;41.83;100133.13;4426931;32;20038;-68
2021/08/01 06:29:33;;;;;;;6.90;3.17;;;;;;;23.65;41.33;100142.63;4421497;32;20100;-68
2021/08/01 06:31:58;;;;;;;7.93;3.37;;;;;;;23.71;41.23;100143.31;4425042;32;20041;-68
2021/08/01 06:34:24;;;;;;;5.35;2.60;;;;;;;23.62;41.13;100141.59;4426027;32;20464;-68
2021/08/01 06:36:51;;;;;;;5.12;3.15;;;;;;;23.62;41.19;100144.47;4425089;32;20133;-68
2021/08/01 06:39:16;;;;;;;6.07;2.58;;;;;;;23.67;41.11;100146.50;4423039;32;20042;-68
2021/08/01 06:41:42;;;;;;;5.45;2.65;;;;;;;23.77;40.96;100144.78;4425054;32;20103;-68
2021/08/01 06:44:08;;;;;;;5.95;2.60;;;;;;;23.61;41.09;100148.66;4422637;32;20173;-68
2021/08/01 06:46:33;;;;;;;6.37;2.45;;;;;;;23.85;40.63;100151.47;4424168;32;20193;-68
2021/08/01 06:48:59;;;;;;;3.95;2.37;;;;;;;24.04;40.30;100157.19;4423185;32;20073;-68
2021/08/01 06:51:25;;;;;;;7.35;2.80;;;;;;;24.20;40.10;100156.19;4420986;32;20156;-68
2021/08/01 06:53:50;;;;;;;7.20;2.65;;;;;;;24.29;39.56;100164.38;4425274;32;20546;-68
2021/08/01 06:56:16;;;;;;;10.15;3.67;;;;;;;24.64;39.54;100161.97;4422368;32;20148;-68
2021/08/01 06:58:42;;;;;;;6.68;3.12;;;;;;;24.98;39.41;100170.78;4422132;32;20128;-68
2021/08/01 07:01:07;;;;;;;7.28;3.12;;;;;;;25.26;39.27;100171.03;4426038;32;20033;-68
2021/08/01 07:03:33;;;;;;;8.38;2.90;;;;;;;25.50;38.28;100178.69;4424886;32;20065;-68
2021/08/01 07:05:59;;;;;;;6.75;3.00;;;;;;;25.72;37.94;100178.19;4424514;32;20496;-69
2021/08/01 07:08:24;;;;;;;6.90;2.97;;;;;;;25.96;37.10;100175.81;4425663;32;20038;-68
2021/08/01 07:10:50;;;;;;;5.43;2.85;;;;;;;26.32;36.86;100184.72;4426343;32;20101;-68
2021/08/01 07:13:15;;;;;;;5.90;2.78;;;;;;;26.53;36.38;100188.34;4429249;32;20510;-69
2021/08/01 07:15:41;;;;;;;5.85;2.10;;;;;;;26.62;35.99;100190.78;4424764;32;20122;-68
2021/08/01 07:18:07;;;;;;;10.77;2.87;;;;;;;26.57;34.78;100189.56;4425240;32;20495;-69
2021/08/01 07:20:34;;;;;;;3.83;2.03;;;;;;;26.91;34.79;100192.41;4426920;32;20017;-68
2021/08/01 07:23:00;;;;;;;6.75;2.45;;;;;;;26.78;34.68;100186.69;4427340;32;20033;-68
2021/08/01 07:25:26;;;;;;;5.53;2.12;;;;;;;26.58;34.82;100190.34;4425738;32;20477;-69
2021/08/01 07:27:52;;;;;;;4.97;2.40;;;;;;;26.54;35.01;100193.56;4428317;32;20038;-68
2021/08/01 07:30:19;;;;;;;6.32;2.90;;;;;;;26.34;35.39;100200.09;4426099;32;20464;-69
2021/08/01 07:32:44;;;;;;;8.93;2.87;;;;;;;25.81;36.36;100187.16;4427300;32;20025;-68
2021/08/01 07:35:10;;;;;;;9.35;2.90;;;;;;;26.03;36.35;100192.47;4428058;32;20498;-68
2021/08/01 07:37:36;;;;;;;5.68;2.92;;;;;;;26.35;36.13;100200.91;4425830;32;20463;-68
2021/08/01 07:40:04;;;;;;;4.78;2.75;;;;;;;25.93;36.30;100196.34;4425796;32;20063;-68
2021/08/01 07:42:30;;;;;;;10.23;3.08;;;;;;;26.57;35.54;100197.47;4426793;32;20478;-69
2021/08/01 07:45:01;;;;;;;7.65;3.03;;;;;;;26.80;35.30;100204.22;4427433;32;20052;-69
2021/08/01 07:47:27;;;;;;;10.70;2.53;;;;;;;26.91;34.85;100206.84;4424399;32;20121;-69
2021/08/01 07:49:53;;;;;;;6.25;2.45;;;;;;;26.95;34.13;100208.03;4425802;32;20069;-69
2021/08/01 07:52:20;;;;;;;9.70;2.50;;;;;;;26.94;34.23;100211.47;4425580;32;20059;-69
2021/08/01 07:54:47;;;;;;;9.13;3.05;;;;;;;27.18;33.76;100216.84;4424789;32;20371;-69
2021/08/01 07:57:32;;;;;;;6.97;2.45;;;;;;;27.37;33.85;100223.19;4423751;32;20077;-69
2021/08/01 08:00:01;;;;;;;8.35;3.42;;;;;;;27.48;33.87;100219.22;4425144;32;20029;-69
2021/08/01 08:02:27;;;;;;;6.97;2.62;;;;;;;27.85;33.55;100230.97;4426446;32;20075;-69
2021/08/01 08:04:53;;;;;;;6.47;2.87;;;;;;;26.89;34.54;100229.72;4425755;32;20502;-69
2021/08/01 08:07:20;;;;;;;5.20;2.67;;;;;;;27.03;34.05;100229.06;4425834;32;20390;-69
2021/08/01 08:09:45;;;;;;;7.00;2.80;;;;;;;26.68;34.87;100235.50;4424646;32;20085;-69
2021/08/01 08:12:11;;;;;;;5.07;2.53;;;;;;;26.83;35.11;100240.63;4426387;32;20137;-68
2021/08/01 08:14:37;;;;;;;2.60;1.95;;;;;;;26.94;35.13;100240.34;4410462;32;20346;-69
2021/08/01 08:17:03;;;;;;;4.25;1.83;;;;;;;26.64;35.69;100231.41;4408574;32;20042;-68
2021/08/01 08:19:29;;;;;;;5.10;1.95;;;;;;;26.22;36.54;100235.53;4410051;32;20077;-69
2021/08/01 08:21:56;;;;;;;5.95;2.50;;;;;;;26.54;35.90;100236.09;4411375;32;20449;-68
2021/08/01 08:24:24;;;;;;;6.20;2.30;;;;;;;26.58;35.88;100236.53;4410403;32;20462;-68
2021/08/01 08:26:50;;;;;;;3.58;2.15;;;;;;;27.01;35.20;100237.53;4408850;32;20434;-69
2021/08/01 08:29:16;;;;;;;4.15;1.73;;;;;;;27.09;35.23;100240.50;4410548;32;20059;-69
2021/08/01 08:31:47;;;;;;;4.78;1.90;;;;;;;26.87;35.65;100241.03;4410290;32;20096;-69
2021/08/01 08:34:13;;;;;;;3.83;2.10;;;;;;;27.45;34.89;100241.34;4409980;32;20181;-69
2021/08/01 08:36:39;;;;;;;3.37;2.22;;;;;;;27.75;34.27;100255.22;4410496;32;20244;-69
2021/08/01 08:39:05;;;;;;;4.72;2.50;;;;;;;27.84;34.59;100243.13;4410754;32;20080;-69
2021/08/01 08:41:32;;;;;;;7.62;2.83;;;;;;;27.88;34.29;100252.22;4411486;32;20086;-69
2021/08/01 08:43:59;;;;;;;3.97;2.35;;;;;;;28.43;33.21;100251.28;4411859;32;20453;-69
2021/08/01 08:46:26;;;;;;;3.50;2.15;;;;;;;27.85;33.91;100248.31;4409530;32;20073;-69
2021/08/01 08:48:54;;;;;;;3.75;1.87;;;;;;;27.52;34.61;100255.06;4411437;32;20033;-69
2021/08/01 08:51:24;;;;;;;4.53;1.87;;;;;;;27.79;34.33;100261.41;4406960;32;20129;-69
2021/08/01 08:53:53;;;;;;;4.28;2.35;;;;;;;27.70;34.54;100256.91;4407340;32;20062;-69
2021/08/01 08:56:21;;;;;;;5.28;2.62;;;;;;;27.35;35.15;100262.66;4409318;32;20026;-69
2021/08/01 08:58:51;;;;;;;8.13;3.17;;;;;;;27.12;37.38;100269.00;4411355;32;20424;-68
2021/08/01 09:01:17;;;;;;;8.35;3.30;;;;;;;26.99;37.92;100271.19;4410220;32;20058;-69
2021/08/01 09:03:43;;;;;;;9.05;3.28;;;;;;;26.35;39.16;100256.47;4409924;32;20370;-69
2021/08/01 09:06:09;;;;;;;8.10;3.67;;;;;;;25.81;40.12;100262.12;4411950;32;20034;-68
2021/08/01 09:08:36;;;;;;;8.15;3.50;;;;;;;25.37;42.20;100260.09;4407633;32;20065;-68
2021/08/01 09:11:01;;;;;;;9.65;3.85;;;;;;;25.31;41.76;100265.16;4409210;32;20056;-68
2021/08/01 09:13:49;;;;;;;6.87;3.58;;;;;;;24.85;42.80;100272.28;4415562;32;20054;-68
2021/08/01 09:16:16;;;;;;;8.48;4.18;;;;;;;24.74;43.83;100268.81;4427184;32;20071;-68
2021/08/01 09:18:43;;;;;;;5.70;3.65;;;;;;;24.59;44.96;100268.50;4423028;32;20738;-68
2021/08/01 09:21:09;;;;;;;5.45;3.40;;;;;;;24.28;44.45;100275.00;4424859;32;20095;-68
2021/08/01 09:23:35;;;;;;;11.20;3.92;;;;;;;24.13;43.72;100268.94;4423774;32;20081;-68
2021/08/01 09:26:04;;;;;;;13.27;4.00;;;;;;;24.42;44.81;100274.50;4410333;32;20034;-68
2021/08/01 09:28:31;;;;;;;7.75;2.58;;;;;;;24.64;43.63;100271.31;4423812;32;20422;-68
2021/08/01 09:41:35;;;;;;;9.93;3.65;;;;;;;25.36;43.09;100287.38;3981326;32;15022452;-69
2021/08/01 09:44:03;;;;;;;4.95;3.08;;;;;;;25.36;43.09;100287.38;4435389;32;20105;-69
2021/08/01 09:46:49;;;;;;;5.97;2.60;;;;;;;24.63;43.13;100280.47;4437487;32;20049;-69
2021/08/01 09:49:18;;;;;;;3.45;1.70;;;;;;;25.24;42.40;100289.66;4436980;32;20029;-69
2021/08/01 09:51:46;;;;;;;4.78;1.40;;;;;;;24.88;42.71;100297.09;4436216;32;20041;-69
2021/08/01 09:54:13;;;;;;;3.00;1.00;;;;;;;24.86;42.98;100305.50;4435248;32;20041;-69
2021/08/01 09:56:57;;;;;;;2.03;1.10;;;;;;;24.70;43.16;100303.66;4437362;32;20088;-69
2021/08/01 09:59:26;;;;;;;2.90;1.37;;;;;;;24.32;44.41;100299.25;4433376;32;20097;-69
2021/08/01 10:04:40;;;;;;;3.40;1.40;;;;;;;23.76;45.84;100298.37;3985954;31;15016845;-67
2021/08/01 10:07:14;;;;;;;3.65;1.80;;;;;;;23.76;45.84;100298.37;4433009;32;20512;-69
2021/08/01 10:09:42;;;;;;;6.67;1.93;;;;;;;23.15;47.07;100301.09;4432958;32;20048;-67
2021/08/01 10:12:09;;;;;;;5.45;1.40;;;;;;;23.24;46.97;100297.91;4441112;32;20073;-67
2021/08/01 10:14:37;;;;;;;8.43;2.33;;;;;;;23.38;47.85;100296.75;4435248;32;20666;-67
2021/08/01 10:17:03;;;;;;;3.47;1.45;;;;;;;23.76;47.66;100301.25;4436762;32;20068;-67
2021/08/01 10:19:30;;;;;;;3.15;1.40;;;;;;;24.40;45.61;100296.53;4433918;32;20037;-67
2021/08/01 10:21:58;;;;;;;4.22;1.52;;;;;;;24.69;45.13;100298.44;4434710;32;20069;-68
2021/08/01 10:24:30;;;;;;;4.20;1.40;;;;;;;25.26;44.45;100306.38;4433624;32;20037;-68
2021/08/01 10:27:02;;;;;;;2.67;1.50;;;;;;;25.68;42.75;100304.59;4435247;32;20417;-68
2021/08/01 10:32:09;;;;;;;5.22;1.35;;;;;;;26.93;40.54;100306.00;3983399;32;15025954;-69
2021/08/01 10:37:34;;;;;;;3.05;1.20;;;;;;;26.86;39.78;100315.37;3981963;32;15023471;-69
2021/08/01 10:40:04;;;;;;;2.50;1.30;;;;;;;26.86;39.78;100315.37;4437107;32;20546;-69
2021/08/01 10:42:32;;;;;;;4.32;1.20;;;;;;;26.66;40.24;100312.47;4435432;32;20382;-69
2021/08/01 10:44:59;;;;;;;4.20;1.52;;;;;;;26.45;40.21;100317.38;4431057;32;20469;-69
2021/08/01 10:47:25;;;;;;;5.15;1.30;;;;;;;26.65;40.22;100326.09;4436835;32;20090;-69
2021/08/01 10:49:52;;;;;;;6.28;1.92;;;;;;;26.82;40.56;100325.72;4434264;32;20503;-69
2021/08/01 10:52:18;;;;;;;4.45;1.83;;;;;;;26.70;41.26;100322.31;4435385;32;20354;-69
2021/08/01 10:57:28;;;;;;;3.03;1.50;;;;;;;28.08;38.34;100330.25;3994952;31;15016069;-69
2021/08/01 11:02:32;;;;;;;4.47;1.52;;;;;;;28.20;37.14;100330.69;3981255;32;15022466;-68
2021/08/01 11:04:57;;;;;;;2.35;1.42;;;;;;;28.20;37.14;100330.69;4436957;32;20117;-70
2021/08/01 11:12:46;;;;;;;3.83;1.50;;;;;;;30.01;33.55;100317.25;3983023;32;15027198;-69
2021/08/01 11:15:14;;;;;;;4.45;1.50;;;;;;;30.01;33.55;100317.25;4439432;32;20445;-67
2021/08/01 11:22:56;;;;;;;2.83;1.33;;;;;;;31.16;31.91;100343.09;3971289;32;15022435;-69
2021/08/01 11:25:31;;;;;;;4.60;1.48;;;;;;;31.16;31.91;100343.09;4423807;32;20104;-69
2021/08/01 11:52:02;;;;;;;8.07;2.03;;;;;;;30.96;31.40;100350.00;3988337;32;15023554;-70
2021/08/01 11:54:31;;;;;;;4.87;1.50;;;;;;;30.96;31.40;100350.00;4448379;32;20076;-70
2021/08/01 11:57:01;;;;;;;6.10;1.92;;;;;;;30.00;32.69;100354.19;4445215;32;20411;-70
2021/08/01 11:59:27;;;;;;;1.73;1.33;;;;;;;30.10;32.46;100343.53;4446165;32;20119;-70
2021/08/01 12:01:54;;;;;;;3.53;1.62;;;;;;;29.54;32.93;100340.31;4448614;32;20356;-70
2021/08/01 12:04:21;;;;;;;1.60;1.25;;;;;;;29.69;33.11;100351.94;4447978;32;20063;-70
2021/08/01 12:06:46;;;;;;;2.70;1.48;;;;;;;29.24;34.33;100357.69;4445944;32;20108;-70
2021/08/01 12:14:35;;;;;;;3.62;1.40;;;;;;;29.65;33.95;100363.94;3982956;32;15031733;-70
2021/08/01 12:19:45;;;;;;;8.05;3.92;;;;;;;29.81;33.06;100370.47;3986611;32;15024615;-69
2021/08/01 12:24:56;;;;;;;4.68;1.67;;;;;;;29.67;33.08;100380.75;3976521;31;15709470;-69
2021/08/01 12:27:31;;;;;;;12.70;6.55;;;;;;;29.67;33.08;100380.75;4446083;32;20140;-69
2021/08/01 12:37:46;;;;;;;3.33;1.92;;;;;;;28.86;36.95;100396.03;3997198;31;15017974;-70
2021/08/01 12:40:15;;;;;;;6.07;2.53;;;;;;;28.86;36.95;100396.03;4452273;32;20032;-69
2021/08/01 12:42:49;;;;;;;3.97;2.25;;;;;;;28.38;37.37;100385.38;4453592;32;20080;-70
2021/08/01 12:45:15;;;;;;;4.47;1.92;;;;;;;28.39;37.50;100389.84;4452676;32;20391;-70
2021/08/01 12:47:42;;;;;;;4.95;1.42;;;;;;;28.30;37.13;100380.91;4453184;32;20142;-70
2021/08/01 12:50:08;;;;;;;3.65;1.40;;;;;;;28.79;36.31;100393.91;4438129;32;20080;-70
2021/08/01 12:52:34;;;;;;;5.85;2.05;;;;;;;29.02;35.62;100388.16;4451796;32;20013;-69
2021/08/01 12:55:00;;;;;;;4.87;1.60;;;;;;;29.52;34.96;100395.22;4453341;32;20096;-69